createdAt,value
2023-02-05T00:01:31.411Z,6.30
2023-02-05T00:04:22.946Z,6.43
2023-02-05T00:07:09.390Z,6.45
2023-02-05T00:09:56.255Z,5.72
2023-02-05T00:12:43.323Z,6.35
2023-02-05T00:15:30.067Z,4.85
2023-02-05T00:18:16.377Z,5.43
2023-02-05T00:21:02.465Z,8.70
2023-02-05T00:23:49.338Z,4.28
2023-02-05T00:26:35.853Z,6.22
2023-02-05T00:29:22.165Z,4.63
2023-02-05T00:32:08.756Z,5.93
2023-02-05T00:34:54.917Z,5.47
2023-02-05T00:37:41.044Z,4.88
2023-02-05T00:40:27.185Z,5.72
2023-02-05T00:43:13.324Z,5.72
2023-02-05T00:45:59.576Z,5.43
2023-02-05T00:48:45.811Z,5.38
2023-02-05T00:51:32.047Z,2.92
2023-02-05T00:54:18.813Z,7.30
2023-02-05T00:57:05.496Z,4.60
2023-02-05T00:59:52.506Z,5.35
2023-02-05T01:02:38.813Z,4.53
2023-02-05T01:05:25.059Z,6.13
2023-02-05T01:08:12.072Z,6.55
2023-02-05T01:10:58.185Z,8.40
2023-02-05T01:13:44.599Z,9.90
2023-02-05T01:16:31.087Z,15.50
2023-02-05T01:19:17.790Z,31.15
2023-02-05T01:22:04.037Z,35.10
2023-02-05T01:24:50.576Z,38.58
2023-02-05T01:27:37.138Z,36.47
2023-02-05T01:30:24.297Z,40.90
2023-02-05T01:33:10.810Z,41.17
2023-02-05T01:35:56.856Z,44.95
2023-02-05T01:38:43.047Z,43.50
2023-02-05T01:41:29.190Z,42.35
2023-02-05T01:44:20.924Z,43.38
2023-02-05T01:47:07.060Z,39.58
2023-02-05T01:49:53.405Z,35.30
2023-02-05T01:52:39.934Z,27.17
2023-02-05T01:55:26.444Z,19.60
2023-02-05T01:58:13.261Z,12.57
2023-02-05T02:00:59.983Z,12.05
2023-02-05T02:03:46.586Z,14.05
2023-02-05T02:06:37.447Z,14.68
2023-02-05T02:09:23.965Z,13.75
2023-02-05T02:12:11.370Z,17.02
2023-02-05T02:14:59.436Z,36.97
2023-02-05T02:17:47.269Z,40.22
2023-02-05T02:20:37.211Z,39.22
2023-02-05T02:23:28.485Z,27.58
2023-02-05T02:26:27.315Z,28.45
2023-02-05T02:29:32.039Z,21.13
2023-02-05T02:32:24.283Z,17.23
2023-02-05T02:35:40.077Z,13.23
2023-02-05T02:38:32.729Z,13.40
2023-02-05T02:41:26.068Z,17.60
2023-02-05T02:44:15.339Z,15.75
2023-02-05T02:47:04.440Z,12.57
2023-02-05T02:49:53.090Z,17.05
2023-02-05T02:52:41.396Z,20.27
2023-02-05T02:55:29.521Z,23.50
2023-02-05T02:58:27.174Z,28.30
2023-02-05T03:01:15.404Z,22.05
2023-02-05T03:04:05.406Z,21.65
2023-02-05T03:06:54.267Z,21.95
2023-02-05T03:09:41.071Z,16.55
2023-02-05T03:12:27.395Z,16.38
2023-02-05T03:15:14.746Z,21.00
2023-02-05T03:18:01.630Z,10.98
2023-02-05T03:20:56.802Z,12.73
2023-02-05T03:23:43.301Z,11.23
2023-02-05T03:26:31.351Z,8.88
2023-02-05T03:29:33.914Z,11.32
2023-02-05T03:32:56.983Z,7.93
2023-02-05T03:35:47.520Z,8.48
2023-02-05T03:38:53.239Z,10.27
2023-02-05T03:41:58.744Z,8.88
2023-02-05T03:44:57.456Z,7.68
2023-02-05T03:48:12.093Z,8.02
2023-02-05T03:51:07.614Z,11.35
2023-02-05T03:54:02.718Z,6.45
2023-02-05T03:56:55.829Z,8.15
2023-02-05T03:59:43.554Z,9.20
2023-02-05T04:02:31.091Z,9.02
2023-02-05T04:05:17.755Z,9.93
2023-02-05T04:08:03.976Z,10.75
2023-02-05T04:10:56.154Z,7.43
2023-02-05T04:13:42.212Z,8.35
2023-02-05T04:16:30.971Z,9.82
2023-02-05T04:19:19.155Z,9.55
2023-02-05T04:22:06.303Z,7.97
2023-02-05T04:24:55.362Z,10.35
2023-02-05T04:27:42.341Z,11.30
2023-02-05T04:30:29.286Z,13.35
2023-02-05T04:33:15.864Z,10.65
2023-02-05T04:36:03.288Z,14.00
2023-02-05T04:38:49.667Z,11.57
2023-02-05T04:41:35.975Z,11.95
2023-02-05T04:44:22.213Z,10.70
2023-02-05T04:47:08.654Z,10.88
2023-02-05T04:49:54.731Z,11.55
2023-02-05T04:52:41.702Z,16.80
2023-02-05T04:55:28.036Z,11.60
2023-02-05T04:58:15.140Z,13.73
2023-02-05T05:01:01.637Z,12.63
2023-02-05T05:03:47.965Z,13.10
2023-02-05T05:06:34.294Z,12.27
2023-02-05T05:09:24.123Z,13.10
2023-02-05T05:12:10.588Z,20.75
2023-02-05T05:14:56.960Z,11.48
2023-02-05T05:17:43.276Z,15.77
2023-02-05T05:20:29.930Z,11.50
2023-02-05T05:23:16.097Z,11.82
2023-02-05T05:26:05.193Z,17.52
2023-02-05T05:28:55.358Z,10.43
2023-02-05T05:31:42.044Z,13.90
2023-02-05T05:34:28.764Z,14.82
2023-02-05T05:37:14.957Z,13.10
2023-02-05T05:40:19.962Z,13.73
2023-02-05T05:43:24.589Z,13.85
2023-02-05T05:46:11.095Z,15.88
2023-02-05T05:48:58.945Z,13.32
2023-02-05T05:51:45.213Z,15.70
2023-02-05T05:54:31.356Z,13.07
2023-02-05T05:57:17.640Z,17.50
2023-02-05T06:00:04.148Z,19.90
2023-02-05T06:02:58.545Z,17.80
2023-02-05T06:05:44.611Z,24.70
2023-02-05T06:08:31.233Z,21.08
2023-02-05T06:11:17.655Z,24.55
2023-02-05T06:14:03.845Z,23.25
2023-02-05T06:16:49.988Z,27.02
2023-02-05T06:19:36.159Z,24.98
2023-02-05T06:22:22.681Z,28.70
2023-02-05T06:25:09.342Z,24.40
2023-02-05T06:27:55.803Z,26.02
2023-02-05T06:30:42.041Z,26.45
2023-02-05T06:33:29.116Z,27.52
2023-02-05T06:36:15.326Z,29.65
2023-02-05T06:39:01.294Z,29.00
2023-02-05T06:41:47.666Z,31.85
2023-02-05T06:44:34.223Z,34.58
2023-02-05T06:47:20.622Z,34.67
2023-02-05T06:50:07.460Z,38.38
2023-02-05T06:52:53.987Z,33.20
2023-02-05T06:55:40.307Z,36.63
2023-02-05T06:58:26.734Z,37.58
2023-02-05T07:01:13.241Z,40.55
2023-02-05T07:03:59.510Z,36.78
2023-02-05T07:06:45.615Z,38.30
2023-02-05T07:09:31.828Z,38.15
2023-02-05T07:12:17.917Z,40.58
2023-02-05T07:15:04.676Z,40.00
2023-02-05T07:17:51.010Z,44.72
2023-02-05T07:20:37.859Z,39.10
2023-02-05T07:23:24.085Z,38.58
2023-02-05T07:26:10.971Z,39.03
2023-02-05T07:28:57.575Z,37.75
2023-02-05T07:31:44.003Z,40.67
2023-02-05T07:34:30.311Z,39.85
2023-02-05T07:37:16.529Z,38.88
2023-02-05T07:40:03.121Z,43.08
2023-02-05T07:42:49.365Z,43.40
2023-02-05T07:45:35.771Z,48.42
2023-02-05T07:48:22.422Z,39.80
2023-02-05T07:51:08.532Z,47.35
2023-02-05T07:53:55.033Z,45.92
2023-02-05T07:56:41.787Z,48.85
2023-02-05T07:59:28.249Z,41.85
2023-02-05T08:02:14.977Z,48.30
2023-02-05T08:05:01.275Z,43.95
2023-02-05T08:07:47.376Z,44.45
2023-02-05T08:10:33.649Z,42.60
2023-02-05T08:13:19.781Z,49.65
2023-02-05T08:16:07.363Z,47.00
2023-02-05T08:18:53.840Z,44.08
2023-02-05T08:21:40.155Z,45.33
2023-02-05T08:24:26.355Z,47.17
2023-02-05T08:27:12.569Z,46.65
2023-02-05T08:29:58.676Z,56.05
2023-02-05T08:32:48.323Z,55.08
2023-02-05T08:35:34.664Z,52.35
2023-02-05T08:38:21.077Z,48.38
2023-02-05T08:41:12.747Z,51.47
2023-02-05T08:43:59.341Z,46.28
2023-02-05T08:46:50.210Z,48.42
2023-02-05T08:49:38.811Z,48.60
2023-02-05T08:52:25.044Z,49.80
2023-02-05T08:55:11.292Z,51.72
2023-02-05T08:57:57.576Z,50.80
2023-02-05T09:00:43.828Z,50.72
2023-02-05T09:03:31.016Z,51.67
2023-02-05T09:06:17.672Z,49.50
2023-02-05T09:09:04.222Z,46.50
2023-02-05T09:11:50.771Z,47.30
2023-02-05T09:14:37.472Z,45.50
2023-02-05T09:17:23.788Z,48.47
2023-02-05T09:20:10.404Z,43.75
2023-02-05T09:22:56.961Z,46.08
2023-02-05T09:25:43.830Z,41.92
2023-02-05T09:28:29.918Z,41.88
2023-02-05T09:31:18.043Z,39.42
2023-02-05T09:34:04.501Z,31.33
2023-02-05T09:36:50.772Z,37.95
2023-02-05T09:42:45.341Z,39.17
2023-02-05T09:45:39.005Z,36.38
2023-02-05T09:48:31.456Z,39.20
2023-02-05T09:51:19.186Z,41.42
2023-02-05T09:54:14.273Z,39.72
2023-02-05T09:57:04.734Z,37.97
2023-02-05T09:59:50.954Z,37.97
2023-02-05T10:02:51.903Z,31.67
2023-02-05T10:05:44.428Z,34.95
2023-02-05T10:08:49.475Z,38.67
2023-02-05T10:11:42.920Z,33.35
2023-02-05T10:14:43.461Z,34.40
2023-02-05T10:17:48.448Z,36.78
2023-02-05T10:21:04.358Z,34.95
2023-02-05T10:24:04.754Z,29.30
2023-02-05T10:26:52.513Z,35.33
2023-02-05T10:29:46.883Z,31.33
2023-02-05T10:32:33.436Z,32.47
2023-02-05T10:35:24.816Z,34.92
2023-02-05T10:38:21.293Z,34.13
2023-02-05T10:41:27.773Z,34.15
2023-02-05T10:44:47.346Z,32.78
2023-02-05T10:47:36.889Z,26.83
2023-02-05T10:50:27.878Z,32.88
2023-02-05T10:53:16.308Z,32.85
2023-02-05T10:56:04.209Z,32.90
2023-02-05T10:58:55.362Z,30.45
2023-02-05T11:01:41.910Z,30.20
2023-02-05T11:04:35.100Z,28.23
2023-02-05T11:07:40.857Z,30.85
2023-02-05T11:10:28.173Z,29.65
2023-02-05T11:13:19.822Z,28.02
2023-02-05T11:16:08.513Z,26.00
2023-02-05T11:19:01.812Z,23.95
2023-02-05T11:21:49.749Z,28.33
2023-02-05T11:24:39.544Z,21.30
2023-02-05T11:27:27.380Z,23.15
2023-02-05T11:30:56.188Z,25.45
2023-02-05T11:33:42.454Z,25.00
2023-02-05T11:36:28.866Z,26.20
2023-02-05T11:39:36.682Z,24.15
2023-02-05T11:42:26.898Z,23.23
2023-02-05T11:45:19.822Z,21.52
2023-02-05T11:48:07.339Z,19.10
2023-02-05T11:50:53.632Z,16.13
2023-02-05T11:53:48.618Z,18.65
2023-02-05T12:00:20.851Z,17.30
2023-02-05T12:03:21.176Z,17.90
2023-02-05T12:06:19.346Z,17.05
2023-02-05T12:09:05.698Z,19.83
2023-02-05T12:12:20.973Z,15.45
2023-02-05T12:15:21.998Z,14.15
2023-02-05T12:18:14.552Z,18.38
2023-02-05T12:21:33.383Z,13.10
2023-02-05T12:24:32.388Z,17.55
2023-02-05T12:27:27.866Z,17.45
2023-02-05T12:30:33.570Z,16.58
2023-02-05T12:33:29.605Z,16.85
2023-02-05T12:36:18.942Z,16.77
2023-02-05T12:39:14.069Z,15.95
2023-02-05T12:42:02.166Z,14.45
2023-02-05T12:45:08.922Z,15.65
2023-02-05T12:47:58.284Z,16.70
2023-02-05T12:50:56.533Z,13.80
2023-02-05T12:53:56.337Z,11.75
2023-02-05T12:56:43.852Z,14.80
2023-02-05T12:59:50.124Z,11.52
2023-02-05T13:02:55.139Z,12.85
2023-02-05T13:05:45.298Z,12.27
2023-02-05T13:09:15.800Z,11.18
2023-02-05T13:12:06.882Z,11.95
2023-02-05T13:15:03.157Z,12.80
2023-02-05T13:18:16.773Z,10.68
2023-02-05T13:21:34.933Z,9.55
2023-02-05T13:24:50.390Z,9.98
2023-02-05T13:28:01.018Z,11.93
2023-02-05T13:30:51.408Z,13.73
2023-02-05T13:33:37.570Z,13.43
2023-02-05T13:36:29.771Z,21.08
2023-02-05T13:39:34.601Z,14.00
2023-02-05T13:42:36.008Z,16.77
2023-02-05T13:45:37.772Z,15.10
2023-02-05T13:48:49.635Z,13.65
2023-02-05T13:51:44.818Z,15.40
2023-02-05T13:54:49.950Z,19.77
2023-02-05T13:57:56.774Z,15.18
2023-02-05T14:00:45.321Z,16.30
2023-02-05T14:03:36.234Z,15.13
2023-02-05T14:06:25.633Z,15.00
2023-02-05T14:09:25.701Z,16.52
2023-02-05T14:12:13.899Z,15.88
2023-02-05T14:15:20.254Z,16.83
2023-02-05T14:18:07.660Z,15.85
2023-02-05T14:20:54.338Z,17.05
2023-02-05T14:23:50.050Z,16.30
2023-02-05T14:27:00.535Z,16.23
2023-02-05T14:29:48.227Z,16.70
2023-02-05T14:32:47.156Z,18.73
2023-02-05T14:35:41.551Z,15.35
2023-02-05T14:38:34.396Z,17.83
2023-02-05T14:45:08.223Z,19.33
2023-02-05T14:47:54.953Z,17.13
2023-02-05T14:50:44.200Z,17.45
2023-02-05T14:53:31.680Z,19.65
2023-02-05T14:56:34.247Z,19.10
2023-02-05T14:59:20.918Z,21.35
2023-02-05T15:02:27.899Z,20.77
2023-02-05T15:05:23.075Z,18.20
2023-02-05T15:08:12.114Z,16.65
2023-02-05T15:10:58.085Z,18.23
2023-02-05T15:14:04.960Z,16.92
2023-02-05T15:17:06.973Z,20.80
2023-02-05T15:19:57.462Z,19.45
2023-02-05T15:22:48.117Z,18.25
2023-02-05T15:25:39.779Z,18.95
2023-02-05T15:28:30.423Z,17.80
2023-02-05T15:31:35.620Z,18.58
2023-02-05T15:34:37.602Z,18.85
2023-02-05T15:37:34.905Z,19.42
2023-02-05T15:40:26.457Z,18.67
2023-02-05T15:43:21.345Z,20.60
2023-02-05T15:46:08.661Z,21.88
2023-02-05T15:48:55.688Z,23.25
2023-02-05T15:51:43.054Z,21.23
2023-02-05T15:54:32.794Z,21.73
2023-02-05T15:57:23.857Z,21.63
2023-02-05T16:00:10.780Z,18.75
2023-02-05T16:03:04.472Z,24.25
2023-02-05T16:05:54.055Z,19.58
2023-02-05T16:08:46.119Z,19.23
2023-02-05T16:11:34.081Z,23.20
2023-02-05T16:14:22.365Z,20.08
2023-02-05T16:17:09.181Z,21.77
2023-02-05T16:20:00.721Z,25.83
2023-02-05T16:22:55.594Z,24.08
2023-02-05T16:25:47.224Z,21.48
2023-02-05T16:28:39.537Z,22.23
2023-02-05T16:31:27.081Z,21.60
2023-02-05T16:34:17.825Z,19.80
2023-02-05T16:37:07.531Z,20.02
2023-02-05T16:39:55.857Z,19.52
2023-02-05T16:42:46.299Z,21.83
2023-02-05T16:45:32.659Z,20.38
2023-02-05T16:48:29.936Z,23.23
2023-02-05T16:51:32.502Z,22.80
2023-02-05T16:54:19.132Z,23.17
2023-02-05T16:57:14.989Z,21.25
2023-02-05T17:00:06.862Z,22.65
2023-02-05T17:02:58.199Z,25.60
2023-02-05T17:05:44.753Z,23.80
2023-02-05T17:08:32.723Z,24.45
2023-02-05T17:11:38.342Z,21.20
2023-02-05T17:14:31.812Z,23.70
2023-02-05T17:17:18.623Z,20.30
2023-02-05T17:20:11.266Z,22.65
2023-02-05T17:23:03.605Z,24.25
2023-02-05T17:25:54.677Z,20.75
2023-02-05T17:28:44.552Z,20.85
2023-02-05T17:31:31.333Z,22.27
2023-02-05T17:34:17.875Z,17.58
2023-02-05T17:37:05.260Z,21.52
2023-02-05T17:39:51.762Z,19.92
2023-02-05T17:42:38.034Z,19.42
2023-02-05T17:45:25.898Z,21.13
2023-02-05T17:48:12.049Z,18.50
2023-02-05T17:50:59.459Z,19.77
2023-02-05T17:53:45.493Z,22.00
2023-02-05T17:56:31.633Z,18.77
2023-02-05T17:59:18.783Z,19.92
2023-02-05T18:02:06.339Z,17.77
2023-02-05T18:04:52.386Z,21.08
2023-02-05T18:07:44.245Z,20.77
2023-02-05T18:10:34.363Z,23.20
2023-02-05T18:13:22.943Z,23.23
2023-02-05T18:16:11.921Z,24.02
2023-02-05T18:18:58.825Z,20.20
2023-02-05T18:21:47.275Z,18.70
2023-02-05T18:24:33.522Z,17.85
2023-02-05T18:27:20.129Z,21.02
2023-02-05T18:30:06.874Z,15.57
2023-02-05T18:32:53.366Z,19.58
2023-02-05T18:35:39.760Z,19.48
2023-02-05T18:38:26.609Z,20.30
2023-02-05T18:41:12.770Z,19.00
2023-02-05T18:43:59.300Z,19.13
2023-02-05T18:46:45.831Z,20.83
2023-02-05T18:49:33.720Z,18.48
2023-02-05T18:52:20.049Z,19.00
2023-02-05T18:55:08.195Z,20.33
2023-02-05T18:57:54.816Z,20.23
2023-02-05T19:00:40.950Z,18.73
2023-02-05T19:03:28.260Z,17.77
2023-02-05T19:06:16.662Z,19.55
2023-02-05T19:09:03.403Z,22.25
2023-02-05T19:11:50.050Z,20.55
2023-02-05T19:14:36.647Z,18.25
2023-02-05T19:17:25.889Z,17.25
2023-02-05T19:20:12.507Z,17.45
2023-02-05T19:22:58.665Z,20.02
2023-02-05T19:25:45.515Z,15.60
2023-02-05T19:28:32.707Z,15.38
2023-02-05T19:31:19.241Z,16.35
2023-02-05T19:34:06.211Z,16.88
2023-02-05T19:36:52.410Z,17.77
2023-02-05T19:39:39.105Z,17.88
2023-02-05T19:42:27.415Z,16.20
2023-02-05T19:45:13.499Z,15.73
2023-02-05T19:47:59.741Z,15.68
2023-02-05T19:50:46.097Z,15.13
2023-02-05T19:53:33.037Z,14.30
2023-02-05T19:56:21.499Z,14.15
2023-02-05T19:59:08.379Z,15.50
2023-02-05T20:01:54.655Z,15.15
2023-02-05T20:04:43.045Z,13.27
2023-02-05T20:07:31.718Z,14.15
2023-02-05T20:10:26.005Z,15.63
2023-02-05T20:13:13.584Z,12.65
2023-02-05T20:16:04.457Z,16.05
2023-02-05T20:19:00.169Z,10.98
2023-02-05T20:21:46.855Z,13.57
2023-02-05T20:24:33.281Z,12.18
2023-02-05T20:27:19.603Z,14.13
2023-02-05T20:30:24.690Z,12.32
2023-02-05T20:33:11.470Z,14.55
2023-02-05T20:35:59.785Z,15.88
2023-02-05T20:38:45.981Z,14.52
2023-02-05T20:41:32.356Z,15.32
2023-02-05T20:44:18.676Z,14.75
2023-02-05T20:47:07.232Z,16.88
2023-02-05T20:49:53.218Z,12.20
2023-02-05T20:52:39.439Z,16.15
2023-02-05T20:55:25.671Z,15.80
2023-02-05T20:58:11.883Z,12.60
2023-02-05T21:01:05.565Z,18.70
2023-02-05T21:03:53.079Z,21.35
2023-02-05T21:06:40.654Z,16.33
2023-02-05T21:09:27.426Z,16.52
2023-02-05T21:12:13.804Z,11.82
2023-02-05T21:15:00.230Z,18.48
2023-02-05T21:17:46.522Z,15.40
2023-02-05T21:20:33.478Z,10.52
2023-02-05T21:23:20.157Z,10.80
2023-02-05T21:26:06.461Z,9.43
2023-02-05T21:28:53.848Z,13.82
2023-02-05T21:31:46.911Z,8.13
2023-02-05T21:34:34.095Z,8.68
2023-02-05T21:37:20.287Z,9.80
2023-02-05T21:40:09.579Z,14.50
2023-02-05T21:42:56.179Z,12.77
2023-02-05T21:45:42.597Z,11.40
2023-02-05T21:48:28.904Z,10.35
2023-02-05T21:51:15.570Z,10.50
2023-02-05T21:54:03.720Z,9.70
2023-02-05T21:56:50.365Z,8.38
2023-02-05T21:59:36.862Z,8.50
2023-02-05T22:02:23.078Z,9.50
2023-02-05T22:05:09.651Z,7.82
2023-02-05T22:07:55.683Z,9.75
2023-02-05T22:10:42.181Z,5.63
2023-02-05T22:13:31.105Z,8.02
2023-02-05T22:16:19.344Z,10.25
2023-02-05T22:19:06.548Z,9.38
2023-02-05T22:21:52.797Z,8.25
2023-02-05T22:24:39.367Z,7.82
2023-02-05T22:27:27.239Z,10.60
2023-02-05T22:30:13.742Z,9.10
2023-02-05T22:33:00.093Z,8.18
2023-02-05T22:35:46.620Z,8.00
2023-02-05T22:38:33.410Z,9.30
2023-02-05T22:41:21.527Z,11.65
2023-02-05T22:44:08.638Z,9.50
2023-02-05T22:46:55.025Z,14.55
2023-02-05T22:49:41.110Z,12.48
2023-02-05T22:52:27.386Z,9.15
2023-02-05T22:55:13.642Z,10.45
2023-02-05T22:58:00.514Z,8.82
2023-02-05T23:00:46.959Z,9.13
2023-02-05T23:03:33.100Z,9.80
2023-02-05T23:06:29.755Z,7.32
2023-02-05T23:09:19.506Z,8.23
2023-02-05T23:12:07.077Z,10.27
2023-02-05T23:14:53.290Z,8.00
2023-02-05T23:17:39.223Z,10.10
2023-02-05T23:20:25.436Z,7.15
2023-02-05T23:23:11.363Z,8.82
2023-02-05T23:25:57.428Z,7.53
2023-02-05T23:28:44.130Z,8.68
2023-02-05T23:31:30.350Z,8.57
2023-02-05T23:34:16.696Z,6.78
2023-02-05T23:37:02.992Z,9.07
2023-02-05T23:39:49.078Z,7.25
2023-02-05T23:42:35.300Z,8.55
2023-02-05T23:45:21.620Z,8.02
2023-02-05T23:48:08.144Z,9.00
2023-02-05T23:50:57.036Z,7.70
2023-02-05T23:53:43.120Z,11.10
2023-02-05T23:56:29.995Z,8.82
2023-02-05T23:59:16.492Z,8.85
